createdAt,value
2022-10-11T00:01:16.190Z,77.98
2022-10-11T00:05:17.949Z,78.50
2022-10-11T00:09:19.493Z,78.74
2022-10-11T00:13:22.230Z,78.94
2022-10-11T00:17:24.985Z,79.13
2022-10-11T00:21:26.905Z,79.38
2022-10-11T00:25:28.450Z,79.70
2022-10-11T00:29:29.881Z,80.14
2022-10-11T00:33:32.753Z,80.67
2022-10-11T00:37:36.014Z,79.85
2022-10-11T00:41:37.615Z,79.68
2022-10-11T00:46:25.565Z,80.10
2022-10-11T00:50:32.853Z,79.55
2022-10-11T00:54:38.061Z,79.61
2022-10-11T00:58:41.105Z,79.27
2022-10-11T01:02:43.309Z,79.59
2022-10-11T01:06:47.558Z,80.21
2022-10-11T01:10:49.560Z,79.43
2022-10-11T01:15:05.831Z,79.89
2022-10-11T01:19:19.693Z,80.51
2022-10-11T01:23:50.002Z,80.11
2022-10-11T01:28:07.378Z,79.89
2022-10-11T01:32:16.213Z,80.31
2022-10-11T01:36:23.810Z,80.52
2022-10-11T01:40:31.629Z,80.41
2022-10-11T01:44:35.520Z,80.60
2022-10-11T01:48:49.142Z,82.15
2022-10-11T01:52:51.517Z,81.68
2022-10-11T01:57:15.057Z,81.50
2022-10-11T02:01:27.010Z,81.76
2022-10-11T02:05:37.713Z,81.37
2022-10-11T02:09:45.489Z,81.21
2022-10-11T02:13:54.176Z,80.61
2022-10-11T02:17:57.849Z,80.67
2022-10-11T02:22:06.414Z,81.17
2022-10-11T02:26:11.233Z,81.53
2022-10-11T02:30:13.962Z,81.23
2022-10-11T02:34:20.370Z,82.00
2022-10-11T02:38:26.022Z,81.35
2022-10-11T02:42:30.858Z,82.38
2022-10-11T02:46:33.969Z,82.61
2022-10-11T02:50:35.602Z,82.29
2022-10-11T02:54:38.325Z,83.03
2022-10-11T02:58:41.617Z,83.23
2022-10-11T03:02:43.054Z,83.47
2022-10-11T03:06:44.618Z,83.01
2022-10-11T03:10:47.357Z,83.45
2022-10-11T03:14:48.949Z,82.54
2022-10-11T03:18:51.069Z,82.05
2022-10-11T03:22:52.597Z,81.96
2022-10-11T03:26:55.481Z,81.77
2022-10-11T03:30:57.433Z,82.03
2022-10-11T03:34:59.012Z,82.52
2022-10-11T03:39:00.528Z,82.09
2022-10-11T03:43:03.358Z,82.63
2022-10-11T03:47:05.074Z,83.03
2022-10-11T03:51:06.670Z,82.82
2022-10-11T03:55:09.366Z,80.43
2022-10-11T03:59:12.126Z,80.63
2022-10-11T04:03:13.677Z,80.30
2022-10-11T04:07:15.441Z,81.08
2022-10-11T04:11:17.025Z,80.59
2022-10-11T04:15:19.801Z,80.29
2022-10-11T04:19:21.306Z,80.60
2022-10-11T04:23:22.782Z,81.44
2022-10-11T04:27:26.730Z,82.19
2022-10-11T04:31:30.194Z,81.84
2022-10-11T04:35:31.837Z,82.34
2022-10-11T04:39:33.413Z,82.65
2022-10-11T04:43:35.821Z,82.64
2022-10-11T04:47:38.542Z,82.34
2022-10-11T04:51:39.931Z,81.71
2022-10-11T04:55:41.300Z,81.64
2022-10-11T04:59:45.487Z,81.82
2022-10-11T05:03:52.250Z,81.58
2022-10-11T05:07:54.028Z,81.91
2022-10-11T05:11:55.620Z,80.98
2022-10-11T05:15:57.637Z,81.92
2022-10-11T05:20:00.589Z,82.49
2022-10-11T05:24:01.983Z,82.72
2022-10-11T05:28:03.796Z,82.69
2022-10-11T05:32:05.405Z,82.37
2022-10-11T05:36:09.144Z,82.33
2022-10-11T05:40:11.543Z,83.03
2022-10-11T05:44:13.119Z,83.27
2022-10-11T05:48:14.718Z,83.17
2022-10-11T05:52:17.462Z,82.36
2022-10-11T05:56:20.702Z,83.01
2022-10-11T06:00:23.677Z,82.80
2022-10-11T06:04:25.259Z,82.65
2022-10-11T06:08:28.066Z,83.20
2022-10-11T06:12:30.168Z,83.06
2022-10-11T06:16:31.583Z,82.87
2022-10-11T06:20:33.731Z,82.62
2022-10-11T06:24:36.655Z,81.77
2022-10-11T06:28:38.172Z,81.40
2022-10-11T06:32:39.981Z,81.26
2022-10-11T06:36:41.387Z,82.77
2022-10-11T06:40:46.452Z,82.17
2022-10-11T06:44:47.838Z,82.71
2022-10-11T06:48:50.368Z,81.91
2022-10-11T06:52:51.954Z,81.63
2022-10-11T06:56:54.950Z,81.89
2022-10-11T07:01:00.641Z,81.79
2022-10-11T07:05:02.250Z,80.48
2022-10-11T07:09:03.906Z,79.74
2022-10-11T07:13:06.898Z,79.64
2022-10-11T07:17:08.490Z,78.66
2022-10-11T07:21:12.654Z,78.68
2022-10-11T07:25:14.210Z,77.78
2022-10-11T07:29:17.326Z,75.44
2022-10-11T07:33:18.780Z,73.76
2022-10-11T07:37:20.230Z,74.12
2022-10-11T07:41:21.763Z,75.85
2022-10-11T07:45:24.815Z,76.08
2022-10-11T07:49:26.495Z,77.10
2022-10-11T07:53:27.914Z,75.69
2022-10-11T07:57:29.507Z,75.87
2022-10-11T08:01:34.029Z,76.34
2022-10-11T08:05:37.838Z,77.08
2022-10-11T08:09:39.733Z,77.29
2022-10-11T08:13:41.333Z,77.61
2022-10-11T08:17:44.279Z,76.97
2022-10-11T08:21:45.660Z,76.54
2022-10-11T08:25:48.522Z,76.38
2022-10-11T08:29:50.108Z,75.90
2022-10-11T08:33:53.125Z,77.32
2022-10-11T08:37:56.983Z,76.59
2022-10-11T08:42:02.623Z,77.48
2022-10-11T08:46:07.848Z,77.30
2022-10-11T08:50:18.104Z,79.76
2022-10-11T08:54:28.029Z,80.07
2022-10-11T08:58:37.845Z,79.61
2022-10-11T09:03:07.521Z,79.30
2022-10-11T09:07:20.816Z,77.96
2022-10-11T09:11:30.546Z,78.86
2022-10-11T09:15:41.992Z,77.87
2022-10-11T09:20:01.359Z,78.44
2022-10-11T09:24:17.853Z,77.18
2022-10-11T09:28:23.876Z,76.72
2022-10-11T09:32:30.341Z,76.18
2022-10-11T09:36:41.365Z,76.07
2022-10-11T09:40:58.662Z,74.59
2022-10-11T09:45:01.682Z,74.80
2022-10-11T09:49:07.325Z,76.26
2022-10-11T09:53:08.938Z,74.64
2022-10-11T09:57:23.870Z,73.34
2022-10-11T10:01:25.576Z,72.08
2022-10-11T10:05:29.386Z,72.27
2022-10-11T10:09:31.097Z,70.49
2022-10-11T10:13:48.132Z,68.79
2022-10-11T10:17:51.297Z,66.72
2022-10-11T10:21:55.380Z,63.18
2022-10-11T10:26:14.133Z,59.12
2022-10-11T10:30:19.159Z,56.17
2022-10-11T10:34:24.923Z,55.50
2022-10-11T10:38:32.662Z,54.10
2022-10-11T10:42:34.413Z,54.12
2022-10-11T10:46:48.880Z,53.80
2022-10-11T10:50:57.513Z,54.35
2022-10-11T10:55:06.865Z,51.27
2022-10-11T10:59:26.724Z,49.93
2022-10-11T11:03:37.311Z,50.94
2022-10-11T11:07:44.802Z,49.39
2022-10-11T11:12:00.191Z,48.81
2022-10-11T11:16:13.770Z,47.32
2022-10-11T11:20:47.060Z,46.73
2022-10-11T11:24:59.854Z,45.92
2022-10-11T11:29:11.225Z,44.87
2022-10-11T11:33:21.297Z,45.45
2022-10-11T11:37:28.580Z,46.59
2022-10-11T11:41:37.232Z,45.13
2022-10-11T11:45:46.823Z,45.00
2022-10-11T11:49:56.854Z,44.95
2022-10-11T11:54:06.999Z,44.03
2022-10-11T11:58:28.779Z,44.63
2022-10-11T12:02:41.137Z,42.89
2022-10-11T12:07:04.116Z,44.23
2022-10-11T12:11:06.428Z,44.91
2022-10-11T12:15:19.893Z,47.19
2022-10-11T12:19:21.506Z,47.69
2022-10-11T12:23:44.115Z,47.48
2022-10-11T12:27:49.306Z,46.15
2022-10-11T12:32:10.520Z,47.50
2022-10-11T12:36:31.385Z,46.65
2022-10-11T12:40:36.537Z,47.83
2022-10-11T12:44:39.423Z,48.38
2022-10-11T12:48:52.105Z,50.97
2022-10-11T12:53:01.630Z,52.02
2022-10-11T12:57:28.763Z,50.14
2022-10-11T13:01:35.574Z,50.47
2022-10-11T13:05:45.263Z,49.47
2022-10-11T13:09:55.570Z,46.13
2022-10-11T13:14:00.004Z,45.84
2022-10-11T13:18:03.025Z,44.28
2022-10-11T13:22:15.052Z,45.18
2022-10-11T13:26:16.713Z,46.66
2022-10-11T13:30:24.002Z,44.78
2022-10-11T13:34:39.721Z,46.28
2022-10-11T13:38:41.402Z,44.46
2022-10-11T13:42:43.831Z,47.39
2022-10-11T13:46:46.112Z,45.88
2022-10-11T13:51:07.082Z,45.29
2022-10-11T13:55:24.589Z,45.23
2022-10-11T13:59:30.603Z,46.96
2022-10-11T14:03:38.819Z,47.75
2022-10-11T14:07:47.776Z,47.76
2022-10-11T14:11:50.109Z,49.29
2022-10-11T14:16:19.921Z,50.45
2022-10-11T14:20:30.883Z,47.75
2022-10-11T14:25:03.994Z,51.30
2022-10-11T14:29:13.477Z,50.65
2022-10-11T14:33:17.861Z,53.01
2022-10-11T14:37:19.511Z,53.49
2022-10-11T14:41:22.553Z,53.24
2022-10-11T14:45:27.408Z,52.19
2022-10-11T14:49:33.381Z,53.44
2022-10-11T14:53:38.719Z,54.64
2022-10-11T14:57:44.022Z,54.06
2022-10-11T15:01:46.601Z,51.29
2022-10-11T15:05:57.836Z,50.65
2022-10-11T15:09:59.525Z,50.41
2022-10-11T15:14:02.424Z,52.86
2022-10-11T15:18:06.012Z,55.29
2022-10-11T15:22:07.550Z,55.03
2022-10-11T15:26:10.352Z,54.00
2022-10-11T15:30:18.654Z,56.45
2022-10-11T15:34:20.210Z,57.89
2022-10-11T15:38:24.895Z,59.27
2022-10-11T15:42:26.534Z,60.18
2022-10-11T15:46:29.367Z,60.97
2022-10-11T15:50:33.736Z,61.85
2022-10-11T15:54:35.250Z,61.55
2022-10-11T15:58:38.606Z,63.30
2022-10-11T16:02:41.367Z,63.78
2022-10-11T16:06:42.899Z,63.67
2022-10-11T16:10:44.545Z,64.64
2022-10-11T16:14:47.346Z,64.84
2022-10-11T16:18:50.951Z,65.54
2022-10-11T16:22:54.387Z,65.89
2022-10-11T16:26:55.925Z,65.84
2022-10-11T16:30:57.560Z,66.25
2022-10-11T16:35:00.591Z,66.03
2022-10-11T16:39:06.409Z,66.58
2022-10-11T16:43:08.274Z,67.32
2022-10-11T16:47:09.888Z,67.17
2022-10-11T16:51:12.763Z,67.81
2022-10-11T16:55:14.313Z,68.21
2022-10-11T16:59:15.897Z,68.54
2022-10-11T17:03:17.443Z,68.90
2022-10-11T17:07:22.631Z,69.26
2022-10-11T17:11:24.271Z,69.40
2022-10-11T17:15:25.811Z,69.52
2022-10-11T17:19:27.339Z,69.79
2022-10-11T17:23:30.446Z,70.61
2022-10-11T17:27:32.019Z,70.76
2022-10-11T17:31:33.560Z,70.75
2022-10-11T17:35:35.106Z,71.55
2022-10-11T17:39:37.873Z,72.09
2022-10-11T17:43:39.377Z,72.00
2022-10-11T17:47:41.056Z,72.54
2022-10-11T17:51:42.663Z,72.23
2022-10-11T17:55:45.695Z,73.46
2022-10-11T17:59:47.263Z,73.93
2022-10-11T18:03:52.232Z,73.36
2022-10-11T18:07:54.221Z,73.71
2022-10-11T18:11:57.035Z,73.20
2022-10-11T18:15:58.436Z,74.06
2022-10-11T18:20:00.351Z,74.25
2022-10-11T18:24:04.397Z,74.50
2022-10-11T18:28:07.319Z,73.62
2022-10-11T18:32:10.183Z,74.49
2022-10-11T18:36:13.919Z,74.36
2022-10-11T18:40:15.643Z,74.17
2022-10-11T18:44:18.401Z,74.14
2022-10-11T18:48:20.066Z,74.47
2022-10-11T18:52:21.629Z,74.86
2022-10-11T18:56:23.260Z,75.23
2022-10-11T19:00:41.772Z,74.76
2022-10-11T19:04:43.463Z,74.90
2022-10-11T19:08:45.767Z,75.42
2022-10-11T19:12:47.152Z,75.05
2022-10-11T19:16:50.888Z,76.52
2022-10-11T19:20:52.298Z,75.98
2022-10-11T19:24:56.189Z,76.22
2022-10-11T19:29:00.063Z,76.26
2022-10-11T19:33:03.227Z,76.12
2022-10-11T19:37:04.778Z,76.74
2022-10-11T19:41:06.319Z,76.67
2022-10-11T19:45:08.981Z,75.98
2022-10-11T19:49:12.736Z,76.77
2022-10-11T19:53:14.215Z,76.74
2022-10-11T19:57:15.757Z,77.58
2022-10-11T20:01:19.486Z,76.89
2022-10-11T20:05:22.419Z,77.22
2022-10-11T20:09:31.423Z,77.71
2022-10-11T20:13:35.089Z,77.43
2022-10-11T20:17:36.789Z,76.64
2022-10-11T20:21:39.733Z,76.54
2022-10-11T20:25:41.325Z,76.62
2022-10-11T20:29:42.720Z,76.51
2022-10-11T20:33:45.217Z,77.01
2022-10-11T20:37:48.082Z,77.20
2022-10-11T20:41:49.608Z,77.31
2022-10-11T20:45:58.466Z,77.72
2022-10-11T20:49:59.853Z,76.80
2022-10-11T20:54:02.913Z,76.59
2022-10-11T20:58:04.444Z,76.80
2022-10-11T21:02:05.993Z,77.24
2022-10-11T21:06:07.873Z,76.71
2022-10-11T21:10:10.633Z,77.70
2022-10-11T21:14:12.271Z,76.75
2022-10-11T21:18:14.206Z,77.69
2022-10-11T21:22:15.737Z,77.34
2022-10-11T21:26:18.492Z,77.32
2022-10-11T21:30:20.019Z,77.71
2022-10-11T21:34:21.517Z,77.39
2022-10-11T21:38:23.120Z,77.23
2022-10-11T21:42:33.558Z,77.79
2022-10-11T21:47:01.719Z,77.48
2022-10-11T21:50:56.486Z,77.22
2022-10-11T21:54:58.001Z,77.32
2022-10-11T21:59:00.881Z,77.72
2022-10-11T22:03:02.433Z,78.01
2022-10-11T22:07:03.844Z,78.88
2022-10-11T22:11:06.054Z,77.89
2022-10-11T22:15:10.903Z,77.94
2022-10-11T22:19:12.468Z,78.69
2022-10-11T22:23:14.456Z,78.47
2022-10-11T22:27:15.883Z,78.70
2022-10-11T22:31:20.350Z,78.29
2022-10-11T22:35:21.909Z,78.43
2022-10-11T22:39:23.434Z,78.69
2022-10-11T22:43:24.976Z,78.65
2022-10-11T22:47:27.708Z,78.67
2022-10-11T22:51:29.253Z,78.87
2022-10-11T22:55:32.805Z,80.38
2022-10-11T22:59:34.340Z,79.70
2022-10-11T23:03:37.406Z,79.08
2022-10-11T23:07:39.208Z,79.34
2022-10-11T23:11:41.009Z,78.83
2022-10-11T23:15:42.578Z,78.99
2022-10-11T23:19:45.473Z,78.35
2022-10-11T23:23:46.893Z,79.57
2022-10-11T23:27:48.489Z,79.59
2022-10-11T23:31:50.874Z,78.76
2022-10-11T23:35:53.740Z,78.71
2022-10-11T23:39:55.312Z,79.02
2022-10-11T23:43:57.313Z,79.36
2022-10-11T23:47:58.904Z,78.78
2022-10-11T23:52:01.777Z,78.42
2022-10-11T23:56:03.893Z,78.47
